Time;durP1;ratioP1;P1;durP2;ratioP2;P2;SDS_P1;SDS_P2;PMS_P1;PMS_P2;Temp;Humidity;BMP_temperature;BMP_pressure;BME280_temperature;BME280_humidity;BME280_pressure;Samples;Min_cycle;Max_cycle;Signal;HPM_P1;HPM_P2
2023/03/31 00:01:15;;;;;;;3.90;1.90;;;;;;;8.94;97.87;100046.56;7401048;19;20018;-69
2023/03/31 00:03:45;;;;;;;4.03;1.95;;;;;;;8.94;97.97;100040.47;7399956;19;20022;-69
2023/03/31 00:06:18;;;;;;;5.63;2.13;;;;;;;8.92;98.30;100037.03;7398547;19;20014;-69
2023/03/31 00:08:50;;;;;;;5.10;2.27;;;;;;;8.90;97.47;100029.22;7400531;19;20489;-69
2023/03/31 00:11:18;;;;;;;5.28;2.20;;;;;;;8.88;97.80;100025.78;7401201;19;20039;-69
2023/03/31 00:13:47;;;;;;;4.18;1.50;;;;;;;8.87;97.31;100029.31;7398826;19;20086;-70
2023/03/31 00:16:18;;;;;;;4.55;1.80;;;;;;;8.84;97.46;100033.78;7400535;19;20086;-70
2023/03/31 00:18:49;;;;;;;6.28;1.70;;;;;;;8.85;97.24;100035.50;7400594;19;20094;-70
2023/03/31 00:21:28;;;;;;;3.50;1.40;;;;;;;8.83;98.23;100035.50;7400852;19;20018;-70
2023/03/31 00:23:59;;;;;;;3.97;1.40;;;;;;;8.82;98.35;100041.66;7399079;19;20027;-70
2023/03/31 00:26:28;;;;;;;3.38;1.50;;;;;;;8.80;97.90;100036.44;7397858;19;20014;-70
2023/03/31 00:28:57;;;;;;;4.30;1.80;;;;;;;8.80;98.67;100031.22;7400539;19;20015;-70
2023/03/31 00:31:29;;;;;;;2.85;1.23;;;;;;;8.76;97.88;100024.34;7400051;19;20089;-69
2023/03/31 00:33:57;;;;;;;4.47;1.50;;;;;;;8.76;97.22;100020.91;7398683;19;20018;-69
2023/03/31 00:36:28;;;;;;;7.35;1.80;;;;;;;8.73;97.67;100023.56;7399911;19;20074;-70
2023/03/31 00:39:01;;;;;;;3.38;1.42;;;;;;;8.71;96.57;100020.16;7400290;19;20078;-70
2023/03/31 00:41:31;;;;;;;4.88;2.00;;;;;;;8.70;98.08;100024.50;7400127;19;20018;-70
2023/03/31 00:44:12;;;;;;;3.00;1.60;;;;;;;8.68;97.38;100018.47;7398157;19;20100;-69
2023/03/31 00:46:48;;;;;;;3.78;1.60;;;;;;;8.66;97.56;100009.81;7398183;19;20066;-68
2023/03/31 00:49:23;;;;;;;4.28;1.45;;;;;;;8.67;98.45;100008.03;7399871;19;20041;-69
2023/03/31 00:51:54;;;;;;;5.55;1.63;;;;;;;8.64;98.22;100012.47;7399070;19;20018;-69
2023/03/31 00:54:25;;;;;;;4.25;1.40;;;;;;;8.63;97.51;100002.91;7397748;19;20018;-69
2023/03/31 00:56:57;;;;;;;5.70;1.70;;;;;;;8.62;97.81;99998.56;7399731;19;20070;-69
2023/03/31 00:59:29;;;;;;;2.50;1.55;;;;;;;8.61;97.47;99996.84;7398733;19;20497;-69
2023/03/31 01:02:03;;;;;;;6.28;1.73;;;;;;;8.62;97.85;99997.72;7399469;19;20018;-69
2023/03/31 01:04:37;;;;;;;3.38;1.42;;;;;;;8.60;96.77;99995.13;7397239;19;20018;-69
2023/03/31 01:07:12;;;;;;;2.85;1.50;;;;;;;8.62;97.51;99982.03;7396349;19;20386;-69
2023/03/31 01:09:42;;;;;;;3.60;1.38;;;;;;;8.61;97.01;99980.31;7399159;19;20007;-69
2023/03/31 01:12:12;;;;;;;4.47;1.55;;;;;;;8.62;98.26;99979.41;7398719;19;20364;-70
2023/03/31 01:14:40;;;;;;;6.45;2.05;;;;;;;8.63;98.17;99974.13;7396949;19;20027;-69
2023/03/31 01:17:17;;;;;;;3.47;1.48;;;;;;;8.62;97.88;99974.19;7398568;19;20023;-69
2023/03/31 01:20:12;;;;;;;4.15;2.00;;;;;;;8.61;97.66;99970.69;7398937;19;20014;-69
2023/03/31 01:23:08;;;;;;;5.65;1.88;;;;;;;8.62;96.00;99967.19;7398220;19;20032;-69
2023/03/31 01:26:08;;;;;;;6.57;1.52;;;;;;;8.61;96.31;99962.84;7397346;19;20508;-71
2023/03/31 01:28:42;;;;;;;2.30;1.38;;;;;;;8.62;97.32;99954.09;7397170;19;20015;-67
2023/03/31 01:31:46;;;;;;;5.38;2.00;;;;;;;8.63;97.24;99952.34;7398510;19;20025;-67
2023/03/31 01:34:44;;;;;;;6.40;1.95;;;;;;;8.64;97.03;99948.84;7395491;19;20103;-68
2023/03/31 01:37:50;;;;;;;5.47;1.50;;;;;;;8.65;98.37;99950.56;7396463;19;20010;-68
2023/03/31 01:40:34;;;;;;;6.07;1.60;;;;;;;8.66;98.17;99944.44;7398221;19;20019;-68
2023/03/31 01:43:11;;;;;;;4.78;1.88;;;;;;;8.66;97.98;99938.31;7397385;19;20397;-67
2023/03/31 01:45:52;;;;;;;6.00;2.00;;;;;;;8.67;98.50;99940.91;7397427;19;20090;-68
2023/03/31 01:48:29;;;;;;;7.60;2.20;;;;;;;8.68;98.38;99934.78;7396084;19;20077;-68
2023/03/31 01:50:59;;;;;;;4.40;1.90;;;;;;;8.70;98.75;99932.97;7397773;19;20014;-68
2023/03/31 01:53:36;;;;;;;6.47;1.92;;;;;;;8.71;99.05;99931.25;7396859;19;20022;-67
2023/03/31 01:56:12;;;;;;;5.30;1.85;;;;;;;8.72;98.36;99922.47;7396933;19;20517;-68
2023/03/31 01:58:44;;;;;;;3.33;1.63;;;;;;;8.74;98.69;99924.13;7397599;19;20078;-68
2023/03/31 02:01:20;;;;;;;3.55;1.40;;;;;;;8.75;98.32;99909.31;7396763;19;20481;-68
2023/03/31 02:03:52;;;;;;;6.72;1.58;;;;;;;8.76;98.39;99909.28;7396280;19;20019;-67
2023/03/31 02:06:27;;;;;;;5.43;1.73;;;;;;;8.78;98.13;99898.75;7395675;19;20029;-68
2023/03/31 02:09:01;;;;;;;2.63;1.40;;;;;;;8.79;97.24;99905.72;7397244;19;20038;-68
2023/03/31 02:11:42;;;;;;;6.00;1.63;;;;;;;8.79;97.20;99895.25;7397168;19;20041;-68
2023/03/31 02:14:22;;;;;;;4.38;1.40;;;;;;;8.82;96.70;99889.06;7396153;19;20039;-69
2023/03/31 02:16:57;;;;;;;3.15;1.30;;;;;;;8.83;97.78;99881.19;7397332;19;20485;-69
2023/03/31 02:19:28;;;;;;;3.97;1.42;;;;;;;8.84;97.79;99882.06;7399698;19;20019;-69
2023/03/31 02:21:57;;;;;;;4.00;1.67;;;;;;;8.86;97.92;99888.09;7396583;19;20015;-68
2023/03/31 02:24:29;;;;;;;4.68;1.83;;;;;;;8.85;97.06;99883.78;7399558;19;20095;-69
2023/03/31 02:27:08;;;;;;;4.53;1.60;;;;;;;8.86;98.03;99878.50;7394268;19;20023;-68
2023/03/31 02:29:36;;;;;;;3.30;1.52;;;;;;;8.87;97.03;99869.75;7394485;19;20544;-68
2023/03/31 02:32:13;;;;;;;4.20;1.48;;;;;;;8.86;97.55;99875.88;7396163;19;20094;-68
2023/03/31 02:34:42;;;;;;;3.90;1.55;;;;;;;8.86;97.83;99872.38;7393824;19;20014;-69
2023/03/31 02:37:11;;;;;;;6.93;2.15;;;;;;;8.84;97.63;99864.59;7395494;19;20073;-68
2023/03/31 02:39:43;;;;;;;4.95;1.83;;;;;;;8.83;97.70;99862.88;7394712;19;20021;-68
2023/03/31 02:42:14;;;;;;;2.35;1.48;;;;;;;8.82;98.42;99868.16;7394034;19;20018;-68
2023/03/31 02:44:43;;;;;;;3.70;1.80;;;;;;;8.79;97.71;99866.50;7394076;19;20018;-68
2023/03/31 02:47:15;;;;;;;5.32;1.95;;;;;;;8.77;97.19;99865.66;7394143;19;20015;-68
2023/03/31 02:49:47;;;;;;;3.92;2.03;;;;;;;8.74;97.20;99856.16;7395860;19;20101;-68
2023/03/31 02:52:42;;;;;;;3.72;1.48;;;;;;;8.72;96.75;99850.13;7395518;19;20082;-68
2023/03/31 02:55:26;;;;;;;;;;;;;;;8.69;96.04;99849.34;7395565;19;20477;-68
2023/03/31 02:58:27;;;;;;;8.57;2.10;;;;;;;8.66;97.12;99850.28;7394442;19;20318;-68
2023/03/31 03:01:19;;;;;;;6.22;1.90;;;;;;;8.64;96.68;99839.00;7393518;19;20022;-67
2023/03/31 03:04:00;;;;;;;5.22;2.03;;;;;;;8.62;98.35;99833.81;7394072;19;20027;-68
2023/03/31 03:06:40;;;;;;;5.75;1.92;;;;;;;8.58;98.27;99832.22;7394639;19;20075;-68
2023/03/31 03:09:25;;;;;;;6.68;2.15;;;;;;;8.55;97.56;99832.28;7394482;19;20432;-69
2023/03/31 03:12:05;;;;;;;5.88;2.00;;;;;;;8.55;98.16;99834.88;7392602;19;20027;-69
2023/03/31 03:14:41;;;;;;;5.60;1.95;;;;;;;8.50;98.04;99818.47;7392878;19;20088;-68
2023/03/31 03:17:13;;;;;;;7.43;1.88;;;;;;;8.48;97.98;99820.31;7395119;19;20027;-69
2023/03/31 03:19:44;;;;;;;7.43;2.00;;;;;;;8.46;98.32;99817.69;7395252;19;20035;-68
2023/03/31 03:22:12;;;;;;;4.20;2.10;;;;;;;8.44;98.09;99816.88;7394463;19;20511;-68
2023/03/31 03:24:41;;;;;;;3.55;1.95;;;;;;;8.42;98.37;99817.81;7392901;19;20031;-68
2023/03/31 03:27:09;;;;;;;2.53;1.55;;;;;;;8.40;97.85;99823.06;7392808;19;20015;-69
2023/03/31 03:29:41;;;;;;;9.52;2.25;;;;;;;8.39;98.24;99817.88;7394477;19;20015;-68
2023/03/31 03:32:10;;;;;;;4.45;1.58;;;;;;;8.38;98.90;99811.81;7394848;19;20082;-68
2023/03/31 03:34:39;;;;;;;6.10;1.90;;;;;;;8.37;97.84;99811.88;7392283;19;20019;-68
2023/03/31 03:37:08;;;;;;;7.38;2.22;;;;;;;8.36;98.39;99812.75;7394400;19;20018;-68
2023/03/31 03:39:42;;;;;;;7.10;2.28;;;;;;;8.33;98.15;99818.94;7394224;19;20035;-68
2023/03/31 03:42:11;;;;;;;14.07;7.20;;;;;;;8.32;98.21;99811.97;7393989;19;20023;-68
2023/03/31 03:44:42;;;;;;;5.38;2.33;;;;;;;8.30;99.18;99808.53;7391316;19;20518;-68
2023/03/31 03:47:10;;;;;;;6.72;2.00;;;;;;;8.29;99.13;99812.03;7392258;19;20427;-67
2023/03/31 03:49:39;;;;;;;6.72;2.17;;;;;;;8.25;99.00;99802.59;7393932;19;20036;-67
2023/03/31 03:52:08;;;;;;;4.35;2.03;;;;;;;8.24;99.25;99806.97;7395897;19;20022;-68
2023/03/31 03:54:37;;;;;;;9.52;2.20;;;;;;;8.21;99.61;99804.41;7398750;19;20014;-67
2023/03/31 03:57:06;;;;;;;5.85;2.40;;;;;;;8.17;99.17;99797.56;7398394;19;20018;-67
2023/03/31 03:59:34;;;;;;;8.05;2.60;;;;;;;8.14;99.51;99798.50;7398108;19;20019;-67
2023/03/31 04:02:05;;;;;;;5.45;1.92;;;;;;;8.11;99.62;99789.91;7400930;19;20022;-67
2023/03/31 04:04:34;;;;;;;5.88;2.72;;;;;;;8.09;100.00;99789.94;7398059;19;20026;-67
2023/03/31 04:07:02;;;;;;;8.75;2.70;;;;;;;8.06;100.00;99789.16;7399055;19;20015;-67
2023/03/31 04:09:31;;;;;;;4.05;2.00;;;;;;;8.01;100.00;99777.97;7400562;19;20022;-67
2023/03/31 04:12:00;;;;;;;7.50;2.58;;;;;;;7.99;99.65;99785.88;7399985;19;20027;-68
2023/03/31 04:14:28;;;;;;;20.27;9.73;;;;;;;7.95;100.00;99773.78;7397821;19;20557;-67
2023/03/31 04:16:57;;;;;;;8.20;3.20;;;;;;;7.92;100.00;99772.13;7400121;19;20485;-67
2023/03/31 04:19:28;;;;;;;5.22;2.40;;;;;;;7.89;100.00;99782.63;7399687;19;20021;-67
2023/03/31 04:22:01;;;;;;;5.47;2.90;;;;;;;7.86;100.00;99767.06;7400322;19;20023;-67
2023/03/31 04:24:31;;;;;;;7.45;2.45;;;;;;;7.83;100.00;99772.34;7397699;19;20018;-67
2023/03/31 04:27:09;;;;;;;6.47;2.47;;;;;;;7.80;100.00;99772.44;7397360;19;20017;-66
2023/03/31 04:29:37;;;;;;;10.10;2.90;;;;;;;7.77;100.00;99768.16;7399266;19;20551;-66
2023/03/31 04:32:06;;;;;;;5.20;2.45;;;;;;;7.76;100.00;99760.34;7399475;19;20019;-67
2023/03/31 04:34:38;;;;;;;6.45;2.85;;;;;;;7.76;100.00;99763.81;7397516;19;20014;-67
2023/03/31 04:37:09;;;;;;;9.75;2.90;;;;;;;7.76;100.00;99758.59;7399990;19;20027;-68
2023/03/31 04:39:37;;;;;;;9.75;3.22;;;;;;;7.76;100.00;99750.75;7400016;19;20048;-68
2023/03/31 04:42:06;;;;;;;7.85;3.17;;;;;;;7.76;100.00;99755.09;7398831;19;20022;-68
2023/03/31 04:44:35;;;;;;;5.18;2.83;;;;;;;7.76;100.00;99742.06;7396779;19;20035;-67
2023/03/31 04:47:05;;;;;;;8.68;3.22;;;;;;;7.77;100.00;99746.38;7397860;19;20431;-68
2023/03/31 04:49:34;;;;;;;8.52;3.25;;;;;;;7.78;100.00;99735.88;7399272;19;20037;-67
2023/03/31 04:52:06;;;;;;;8.38;3.72;;;;;;;7.79;100.00;99734.16;7399581;19;20091;-67
2023/03/31 04:54:34;;;;;;;6.78;3.20;;;;;;;7.81;100.00;99724.53;7396736;19;20022;-67
2023/03/31 04:57:03;;;;;;;5.80;3.22;;;;;;;7.83;100.00;99727.94;7398748;19;20022;-68
2023/03/31 04:59:31;;;;;;;6.13;3.03;;;;;;;7.84;100.00;99721.84;7398647;19;20031;-68
2023/03/31 05:02:00;;;;;;;7.28;3.42;;;;;;;7.87;100.00;99723.50;7398092;19;20022;-68
2023/03/31 05:04:28;;;;;;;10.43;3.05;;;;;;;7.88;100.00;99718.22;7393470;19;20018;-68
2023/03/31 05:06:57;;;;;;;5.50;2.90;;;;;;;7.90;100.00;99710.34;7396596;19;20019;-67
2023/03/31 05:09:28;;;;;;;6.97;2.92;;;;;;;7.92;100.00;99703.34;7397564;19;20018;-67
2023/03/31 05:11:56;;;;;;;6.25;2.72;;;;;;;7.95;100.00;99703.28;7396313;19;20025;-69
2023/03/31 05:14:25;;;;;;;10.40;3.42;;;;;;;7.97;100.00;99698.84;7396364;19;20077;-66
2023/03/31 05:16:53;;;;;;;6.85;2.80;;;;;;;8.00;100.00;99693.56;7397093;19;20455;-68
2023/03/31 05:19:22;;;;;;;5.32;3.17;;;;;;;8.03;100.00;99695.22;7396458;19;20032;-67
2023/03/31 05:21:50;;;;;;;6.82;3.10;;;;;;;8.05;100.00;99689.06;7396026;19;20464;-67
2023/03/31 05:24:19;;;;;;;7.55;3.42;;;;;;;8.07;100.00;99682.00;7395954;19;20018;-68
2023/03/31 05:26:51;;;;;;;7.40;3.35;;;;;;;8.09;100.00;99674.16;7396756;19;20037;-68
2023/03/31 05:29:20;;;;;;;9.23;2.67;;;;;;;8.10;100.00;99668.88;7394770;19;20006;-68
2023/03/31 05:31:49;;;;;;;12.75;5.80;;;;;;;8.12;100.00;99672.28;7397636;19;20015;-66
2023/03/31 05:34:17;;;;;;;13.45;5.68;;;;;;;8.13;100.00;99660.09;7396250;19;20019;-68
2023/03/31 05:36:46;;;;;;;9.82;4.35;;;;;;;8.14;100.00;99662.66;7396755;19;20485;-67
2023/03/31 05:39:15;;;;;;;13.32;4.32;;;;;;;8.12;100.00;99646.16;7397005;19;20370;-67
2023/03/31 05:41:44;;;;;;;9.18;3.15;;;;;;;8.18;100.00;99647.75;7394195;19;20481;-68
2023/03/31 05:44:15;;;;;;;7.03;2.97;;;;;;;8.21;100.00;99658.09;7393942;19;20014;-68
2023/03/31 05:46:44;;;;;;;8.25;3.05;;;;;;;8.24;100.00;99649.31;7395985;19;20022;-68
2023/03/31 05:49:15;;;;;;;9.07;3.22;;;;;;;8.26;100.00;99647.50;7396250;19;20078;-67
2023/03/31 05:51:43;;;;;;;5.32;2.70;;;;;;;8.30;100.00;99647.38;7396644;19;20487;-68
2023/03/31 05:54:12;;;;;;;9.98;2.72;;;;;;;8.35;100.00;99638.53;7394876;19;20427;-68
2023/03/31 05:56:40;;;;;;;9.32;2.67;;;;;;;8.37;100.00;99637.59;7395664;19;20019;-68
2023/03/31 05:59:09;;;;;;;5.95;2.40;;;;;;;8.40;100.00;99626.19;7394480;19;20027;-68
2023/03/31 06:01:46;;;;;;;7.93;2.78;;;;;;;8.41;100.00;99627.91;7396595;19;20035;-69
2023/03/31 06:04:15;;;;;;;10.10;2.80;;;;;;;8.43;100.00;99618.28;7394895;19;20026;-68
2023/03/31 06:06:44;;;;;;;9.40;2.92;;;;;;;8.45;100.00;99613.84;7395152;19;20422;-67
2023/03/31 06:09:13;;;;;;;6.85;2.90;;;;;;;8.48;100.00;99619.00;7396421;19;20015;-68
2023/03/31 06:11:42;;;;;;;7.85;2.42;;;;;;;8.50;100.00;99605.88;7395957;19;20031;-68
2023/03/31 06:14:10;;;;;;;9.48;2.30;;;;;;;8.52;100.00;99599.72;7394965;19;20018;-68
2023/03/31 06:16:39;;;;;;;10.05;2.45;;;;;;;8.55;100.00;99596.97;7395021;19;20022;-67
2023/03/31 06:19:10;;;;;;;8.52;3.00;;;;;;;8.58;100.00;99599.50;7395678;19;20485;-69
2023/03/31 06:21:38;;;;;;;6.07;2.28;;;;;;;8.63;100.00;99597.59;7397226;19;20018;-70
2023/03/31 06:24:07;;;;;;;6.95;2.50;;;;;;;8.67;100.00;99595.75;7394334;19;20022;-68
2023/03/31 06:26:36;;;;;;;6.75;2.13;;;;;;;8.72;100.00;99592.97;7395514;19;20018;-68
2023/03/31 06:29:04;;;;;;;9.60;2.38;;;;;;;8.76;100.00;99592.00;7393047;19;20010;-68
2023/03/31 06:31:33;;;;;;;10.23;3.13;;;;;;;8.82;99.84;99583.94;7393811;19;20022;-68
2023/03/31 06:34:01;;;;;;;9.55;2.85;;;;;;;8.88;98.84;99585.50;7393929;19;20024;-69
2023/03/31 06:36:32;;;;;;;9.52;2.58;;;;;;;8.93;99.39;99583.56;7395375;19;20082;-69
2023/03/31 06:39:01;;;;;;;8.52;2.08;;;;;;;8.96;98.75;99584.31;7393432;19;20018;-68
2023/03/31 06:41:30;;;;;;;11.07;2.90;;;;;;;9.01;99.18;99578.06;7394871;19;20037;-72
2023/03/31 06:43:58;;;;;;;8.13;2.40;;;;;;;9.04;98.96;99578.81;7393910;19;20034;-68
2023/03/31 06:46:27;;;;;;;9.10;2.55;;;;;;;9.06;99.22;99571.78;7395342;19;20022;-67
2023/03/31 06:48:55;;;;;;;5.82;2.95;;;;;;;9.13;99.07;99569.81;7393483;19;20029;-67
2023/03/31 06:51:24;;;;;;;4.95;2.10;;;;;;;9.16;99.22;99564.47;7394838;19;20021;-67
2023/03/31 06:53:55;;;;;;;9.90;2.60;;;;;;;9.19;98.37;99569.59;7393196;19;20031;-69
2023/03/31 06:56:23;;;;;;;9.75;2.80;;;;;;;9.23;98.68;99568.56;7395406;19;20090;-68
2023/03/31 06:58:52;;;;;;;7.28;2.33;;;;;;;9.28;98.59;99565.81;7395045;19;20041;-67
2023/03/31 07:01:20;;;;;;;10.55;2.75;;;;;;;9.32;97.75;99562.16;7394929;19;20014;-67
2023/03/31 07:03:49;;;;;;;8.68;2.03;;;;;;;9.38;97.05;99569.81;7392812;19;20036;-67
2023/03/31 07:06:17;;;;;;;4.00;1.70;;;;;;;9.42;97.39;99565.31;7394835;19;20026;-67
2023/03/31 07:08:46;;;;;;;8.73;2.13;;;;;;;9.48;96.44;99564.22;7392463;19;20018;-67
2023/03/31 07:11:17;;;;;;;4.97;2.20;;;;;;;9.54;96.23;99559.66;7394140;19;20015;-67
2023/03/31 07:13:46;;;;;;;6.78;2.13;;;;;;;9.60;96.80;99550.69;7393232;19;20025;-68
2023/03/31 07:16:15;;;;;;;9.32;2.45;;;;;;;9.68;96.60;99553.03;7393398;19;20014;-68
2023/03/31 07:18:44;;;;;;;4.50;2.05;;;;;;;9.75;95.27;99565.00;7394198;19;20038;-69
2023/03/31 07:21:12;;;;;;;4.50;1.88;;;;;;;9.82;95.17;99557.75;7394146;19;20023;-68
2023/03/31 07:23:41;;;;;;;5.78;1.95;;;;;;;9.90;92.98;99551.31;7393310;19;20018;-68
2023/03/31 07:26:10;;;;;;;5.53;1.98;;;;;;;9.98;94.04;99551.00;7394482;19;20026;-68
2023/03/31 07:28:41;;;;;;;9.40;2.78;;;;;;;10.06;93.25;99563.81;7398282;19;20465;-68
2023/03/31 07:31:13;;;;;;;7.30;1.88;;;;;;;10.14;93.86;99559.16;7402181;19;20031;-69
2023/03/31 07:33:42;;;;;;;6.25;2.20;;;;;;;10.21;94.15;99547.50;7398494;19;20018;-67
2023/03/31 07:36:12;;;;;;;7.47;2.08;;;;;;;10.33;93.83;99546.16;7400832;19;20027;-68
2023/03/31 07:38:41;;;;;;;5.53;1.98;;;;;;;10.42;93.29;99550.22;7401223;19;20014;-67
2023/03/31 07:41:12;;;;;;;8.35;1.83;;;;;;;10.49;92.53;99543.81;7398402;19;20018;-68
2023/03/31 07:43:43;;;;;;;9.05;1.70;;;;;;;10.59;87.10;99537.28;7400127;19;20018;-67
2023/03/31 07:46:17;;;;;;;5.93;1.83;;;;;;;10.69;89.21;99534.25;7398107;19;20031;-67
2023/03/31 07:48:46;;;;;;;6.43;2.33;;;;;;;10.80;89.85;99532.03;7398957;19;20018;-69
2023/03/31 07:51:15;;;;;;;4.05;1.58;;;;;;;10.97;88.85;99520.84;7397894;19;20028;-67
2023/03/31 07:53:43;;;;;;;4.85;1.95;;;;;;;11.12;90.30;99511.47;7399003;19;20041;-67
2023/03/31 07:56:12;;;;;;;5.40;1.38;;;;;;;11.28;88.81;99516.03;7400888;19;20026;-67
2023/03/31 07:58:43;;;;;;;4.75;1.70;;;;;;;11.40;87.28;99515.50;7400515;19;20022;-68
2023/03/31 08:01:15;;;;;;;4.80;1.15;;;;;;;11.52;87.71;99519.31;7401158;19;20022;-67
2023/03/31 08:03:44;;;;;;;7.13;1.40;;;;;;;11.62;84.81;99517.16;7399284;19;20018;-67
2023/03/31 08:06:12;;;;;;;8.23;1.80;;;;;;;11.70;87.01;99515.88;7399702;19;20417;-68
2023/03/31 08:08:42;;;;;;;5.40;1.48;;;;;;;11.77;81.56;99519.06;7397824;19;20027;-67
2023/03/31 08:11:10;;;;;;;3.70;1.17;;;;;;;11.84;84.34;99496.84;7400095;19;20022;-68
2023/03/31 08:13:39;;;;;;;7.47;1.73;;;;;;;11.91;85.35;99497.38;7397508;19;20026;-68
2023/03/31 08:16:10;;;;;;;5.70;1.40;;;;;;;12.00;85.11;99498.75;7400051;19;20099;-68
2023/03/31 08:18:39;;;;;;;6.93;1.38;;;;;;;12.09;85.02;99492.22;7398213;19;20022;-68
2023/03/31 08:21:08;;;;;;;5.85;1.65;;;;;;;12.17;84.53;99487.41;7397399;19;20371;-68
2023/03/31 08:23:37;;;;;;;5.90;1.75;;;;;;;12.27;85.17;99479.94;7397927;19;20023;-67
2023/03/31 08:26:13;;;;;;;5.63;1.45;;;;;;;12.34;82.70;99473.47;7400062;19;20026;-67
2023/03/31 08:28:42;;;;;;;3.67;1.40;;;;;;;12.41;82.89;99482.75;7397278;19;20018;-67
2023/03/31 08:31:15;;;;;;;4.28;1.50;;;;;;;12.41;78.95;99469.63;7399412;19;20014;-67
2023/03/31 08:33:43;;;;;;;2.80;1.50;;;;;;;12.46;81.56;99462.34;7397332;19;20035;-66
2023/03/31 08:36:12;;;;;;;3.28;2.03;;;;;;;12.49;82.92;99469.22;7399522;19;20023;-68
2023/03/31 08:38:44;;;;;;;4.32;1.92;;;;;;;12.52;82.06;99469.06;7399115;19;20025;-67
2023/03/31 08:41:36;;;;;;;3.47;1.23;;;;;;;12.55;76.68;99464.50;7398771;19;20365;-68
2023/03/31 08:44:10;;;;;;;5.05;2.08;;;;;;;12.56;79.28;99454.81;7397800;19;20035;-66
2023/03/31 08:46:42;;;;;;;4.25;2.03;;;;;;;12.57;78.34;99459.16;7396734;19;20018;-67
2023/03/31 08:49:16;;;;;;;5.20;1.92;;;;;;;12.60;78.25;99460.78;7397070;19;20505;-67
2023/03/31 08:51:50;;;;;;;8.77;2.10;;;;;;;12.64;81.10;99463.19;7399220;19;20022;-67
2023/03/31 08:54:21;;;;;;;;;;;;;;;12.65;74.55;99457.00;7398441;19;20081;-67
2023/03/31 08:56:52;;;;;;;4.55;1.60;;;;;;;12.64;78.95;99451.81;7399259;19;19935;-67
2023/03/31 08:59:29;;;;;;;3.63;1.48;;;;;;;12.65;76.87;99462.25;7399011;19;20018;-67
2023/03/31 09:02:06;;;;;;;3.90;1.27;;;;;;;12.65;76.07;99451.75;7398693;19;20034;-67
2023/03/31 09:05:11;;;;;;;5.55;1.45;;;;;;;12.67;77.62;99452.50;7396202;19;20411;-67
2023/03/31 09:07:48;;;;;;;4.05;1.95;;;;;;;12.70;77.61;99454.97;7396542;19;20037;-67
2023/03/31 09:10:32;;;;;;;4.03;1.60;;;;;;;12.76;79.19;99451.16;7397966;19;20035;-67
2023/03/31 09:13:07;;;;;;;4.25;1.20;;;;;;;12.82;80.24;99447.38;7396275;19;20039;-68
2023/03/31 09:15:42;;;;;;;3.83;1.45;;;;;;;12.84;76.94;99442.91;7397139;19;20014;-69
2023/03/31 09:18:21;;;;;;;5.10;1.60;;;;;;;12.85;77.51;99439.31;7395897;19;20023;-68
2023/03/31 09:20:53;;;;;;;3.30;1.35;;;;;;;12.86;79.22;99430.50;7397852;19;20485;-68
2023/03/31 09:23:28;;;;;;;6.85;2.22;;;;;;;12.84;79.17;99433.22;7397821;19;20030;-69
2023/03/31 09:25:59;;;;;;;2.15;1.50;;;;;;;12.79;77.10;99450.16;7397920;19;20020;-68
2023/03/31 09:28:33;;;;;;;6.07;2.38;;;;;;;12.74;79.31;99431.13;7395700;19;20011;-69
2023/03/31 09:31:02;;;;;;;;;;;;;;;12.71;78.33;99425.13;7399046;19;20019;-68
2023/03/31 09:33:33;;;;;;;6.57;2.15;;;;;;;12.67;80.41;99422.72;7396613;19;20318;-67
2023/03/31 09:36:02;;;;;;;4.93;1.90;;;;;;;12.60;80.59;99419.56;7396924;19;20011;-67
2023/03/31 09:38:31;;;;;;;6.70;2.22;;;;;;;12.57;82.77;99405.69;7399299;19;20037;-68
2023/03/31 09:41:01;;;;;;;7.80;2.70;;;;;;;12.56;83.16;99402.19;7395804;19;20021;-68
2023/03/31 09:43:31;;;;;;;7.85;2.35;;;;;;;12.58;84.07;99399.50;7396016;19;20011;-68
2023/03/31 09:46:00;;;;;;;4.43;2.00;;;;;;;12.58;83.46;99392.47;7397486;19;20035;-68
2023/03/31 09:48:36;;;;;;;4.78;1.63;;;;;;;12.56;82.98;99389.03;7394969;19;20015;-68
2023/03/31 09:51:08;;;;;;;8.82;2.10;;;;;;;12.54;84.21;99375.97;7394147;19;20022;-67
2023/03/31 09:53:41;;;;;;;5.53;2.05;;;;;;;12.57;84.18;99374.13;7394817;19;20443;-68
2023/03/31 09:56:12;;;;;;;3.83;2.27;;;;;;;12.60;85.14;99368.69;7396702;19;20481;-68
2023/03/31 09:58:43;;;;;;;5.32;1.70;;;;;;;12.63;83.50;99369.38;7397372;19;20028;-68
2023/03/31 10:01:14;;;;;;;6.95;2.25;;;;;;;12.68;84.88;99364.72;7396014;19;20014;-68
2023/03/31 10:03:52;;;;;;;6.20;1.80;;;;;;;12.71;83.08;99350.56;7397787;19;20014;-67
2023/03/31 10:06:21;;;;;;;6.68;2.22;;;;;;;12.74;84.65;99352.19;7396959;19;20022;-67
2023/03/31 10:08:53;;;;;;;7.07;2.80;;;;;;;12.75;83.06;99341.59;7395686;19;20014;-67
2023/03/31 10:11:22;;;;;;;6.30;2.53;;;;;;;12.74;82.00;99350.41;7396546;19;20431;-67
2023/03/31 10:13:57;;;;;;;6.90;2.08;;;;;;;12.74;82.60;99342.53;7395912;19;20039;-68
2023/03/31 10:16:31;;;;;;;3.67;1.92;;;;;;;12.76;83.29;99345.06;7396442;19;20015;-68
2023/03/31 10:19:14;;;;;;;;;;;;;;;12.79;81.31;99344.88;7396234;19;20018;-67
2023/03/31 10:21:48;;;;;;;5.53;2.03;;;;;;;12.84;83.88;99349.00;7397293;19;19935;-68
2023/03/31 10:24:28;;;;;;;3.75;1.67;;;;;;;12.88;84.12;99336.53;7395312;19;20149;-69
2023/03/31 10:26:58;;;;;;;6.63;2.30;;;;;;;12.91;83.54;99336.34;7396365;19;20025;-66
2023/03/31 10:29:32;;;;;;;5.57;1.98;;;;;;;12.94;80.61;99327.44;7393615;19;20426;-68
2023/03/31 10:32:06;;;;;;;5.53;2.30;;;;;;;12.91;78.83;99328.44;7395862;19;20023;-67
2023/03/31 10:34:35;;;;;;;;;;;;;;;12.95;79.85;99321.22;7394730;19;20015;-67
2023/03/31 10:37:07;;;;;;;4.75;1.90;;;;;;;13.01;83.96;99316.47;7393705;19;19915;-67
2023/03/31 10:39:37;;;;;;;5.63;2.13;;;;;;;13.09;84.15;99309.94;7395814;19;20033;-67
2023/03/31 10:42:06;;;;;;;8.68;2.25;;;;;;;13.16;83.50;99303.41;7395032;19;20022;-68
2023/03/31 10:44:37;;;;;;;6.65;2.33;;;;;;;13.17;80.32;99305.97;7393407;19;20022;-67
2023/03/31 10:47:08;;;;;;;7.65;2.40;;;;;;;13.22;82.40;99294.31;7394835;19;20026;-66
2023/03/31 10:49:41;;;;;;;3.17;1.90;;;;;;;13.21;79.50;99301.38;7392906;19;20481;-66
2023/03/31 10:52:20;;;;;;;5.43;2.00;;;;;;;13.18;75.60;99296.25;7396148;19;20014;-67
2023/03/31 10:54:50;;;;;;;5.55;2.00;;;;;;;13.15;80.21;99294.66;7395498;19;20007;-67
2023/03/31 10:57:25;;;;;;;4.82;1.45;;;;;;;13.15;80.41;99285.91;7393010;19;20011;-71
2023/03/31 11:00:14;;;;;;;6.55;2.22;;;;;;;13.12;76.58;99267.66;7394760;19;20031;-69
2023/03/31 11:03:10;;;;;;;4.53;1.77;;;;;;;13.17;76.54;99270.88;7391568;19;20021;-67
2023/03/31 11:05:48;;;;;;;3.58;1.80;;;;;;;13.20;77.15;99276.84;7394575;19;20022;-68
2023/03/31 11:08:30;;;;;;;6.60;2.42;;;;;;;13.26;78.28;99261.63;7391628;19;20027;-66
2023/03/31 11:11:20;;;;;;;4.55;2.03;;;;;;;13.38;79.18;99249.56;7394798;19;20081;-68
2023/03/31 11:13:58;;;;;;;5.45;2.50;;;;;;;13.45;78.59;99264.09;7392930;19;20045;-68
2023/03/31 11:16:35;;;;;;;3.95;1.77;;;;;;;13.34;78.70;99262.03;7392937;19;20024;-69
2023/03/31 11:19:13;;;;;;;6.68;1.52;;;;;;;12.96;82.36;99260.59;7393524;19;20010;-69
2023/03/31 11:21:55;;;;;;;2.55;1.55;;;;;;;12.31;85.28;99260.59;7392931;19;20021;-71
2023/03/31 11:24:40;;;;;;;3.55;1.48;;;;;;;11.81;88.01;99252.59;7391686;19;20014;-70
2023/03/31 11:27:26;;;;;;;5.32;2.22;;;;;;;11.48;90.40;99236.75;7394414;19;20034;-72
2023/03/31 11:30:03;;;;;;;4.65;2.38;;;;;;;11.36;92.10;99241.69;7392906;19;20015;-71
2023/03/31 11:32:49;;;;;;;4.38;2.47;;;;;;;11.30;93.44;99236.72;7394565;19;20019;-69
2023/03/31 11:35:36;;;;;;;6.20;2.80;;;;;;;11.31;94.53;99229.69;7394643;19;20035;-71
2023/03/31 11:38:28;;;;;;;6.97;3.28;;;;;;;11.34;95.21;99229.56;7391412;19;20481;-72
2023/03/31 11:41:03;;;;;;;8.57;3.83;;;;;;;11.41;96.05;99223.06;7393686;19;20031;-76
2023/03/31 11:43:37;;;;;;;11.60;4.90;;;;;;;11.47;96.47;99212.25;7389452;19;20019;-70
2023/03/31 11:46:11;;;;;;;;;;;;;;;11.53;97.21;99205.84;7393789;19;20018;-69
2023/03/31 11:48:46;;;;;;;9.52;4.55;;;;;;;11.53;96.38;99204.06;7393262;19;19955;-70
2023/03/31 11:51:19;;;;;;;7.63;3.65;;;;;;;11.52;96.64;99204.16;7393789;19;20469;-72
2023/03/31 11:53:50;;;;;;;7.22;3.97;;;;;;;11.47;97.01;99207.00;7391465;19;20476;-70
2023/03/31 11:56:23;;;;;;;5.90;2.97;;;;;;;11.38;95.94;99205.69;7393247;19;20011;-70
2023/03/31 11:58:56;;;;;;;6.82;3.05;;;;;;;11.30;95.59;99199.09;7392941;19;20040;-69
2023/03/31 12:01:44;;;;;;;8.48;3.42;;;;;;;11.22;96.03;99197.72;7393495;19;20022;-73
2023/03/31 12:04:22;;;;;;;4.65;2.58;;;;;;;11.15;96.13;99190.22;7391629;19;20103;-69